Mount Washington, Maryland
Current Conditions -  °F | °C
As of 7:54 PM on Friday 24 Oct 2014 (Local Time) from KBWI Reporting Station
Broken Clouds Broken Clouds  
Wind Chill: 53°   Ceiling: 20000
Heat Index: 53°   Visibility: 10mi
Dew Point: 38°   Wind: 7mph
Humidity: 57%   Direction: 280°W
Pressure: 29.91"   Gusts: NA
Location:  39.3715°N, 76.6675°W
Report Text: KBWI 242354Z 28006KT 10SM BKN200 BKN250 12/03 A2991 RMK AO2 SLP128 T01170033 10200 20106 51014
Loading
Personal Weather Stations






























Interactive Weather Map
Tropical Storm Tracking
New forecast layout! Learn more

10-Day Weather Forecast

Advertisements
Track Severe Weather on mobile